sensor_id;sensor_type;location;lat;lon;timestamp;P1;durP1;ratioP1;P2;durP2;ratioP2
11187;SDS011;5650;52.700;7.306;2022-07-17T00:01:58;7.53;;;2.15;;
11187;SDS011;5650;52.700;7.306;2022-07-17T00:04:28;5.90;;;2.35;;
11187;SDS011;5650;52.700;7.306;2022-07-17T00:06:58;4.95;;;2.22;;
11187;SDS011;5650;52.700;7.306;2022-07-17T00:09:27;5.85;;;2.15;;
11187;SDS011;5650;52.700;7.306;2022-07-17T00:11:54;4.97;;;2.10;;
11187;SDS011;5650;52.700;7.306;2022-07-17T00:14:21;6.15;;;2.47;;
11187;SDS011;5650;52.700;7.306;2022-07-17T00:16:50;6.70;;;2.30;;
11187;SDS011;5650;52.700;7.306;2022-07-17T00:19:18;4.60;;;2.20;;
11187;SDS011;5650;52.700;7.306;2022-07-17T00:21:46;4.20;;;2.28;;
11187;SDS011;5650;52.700;7.306;2022-07-17T00:24:14;5.53;;;2.40;;
11187;SDS011;5650;52.700;7.306;2022-07-17T00:26:51;6.35;;;2.58;;
11187;SDS011;5650;52.700;7.306;2022-07-17T00:29:21;6.82;;;2.38;;
11187;SDS011;5650;52.700;7.306;2022-07-17T00:31:52;7.05;;;3.08;;
11187;SDS011;5650;52.700;7.306;2022-07-17T00:34:20;5.25;;;2.72;;
11187;SDS011;5650;52.700;7.306;2022-07-17T00:36:53;5.88;;;2.92;;
11187;SDS011;5650;52.700;7.306;2022-07-17T00:39:23;5.28;;;2.58;;
11187;SDS011;5650;52.700;7.306;2022-07-17T00:41:56;5.50;;;2.65;;
11187;SDS011;5650;52.700;7.306;2022-07-17T00:44:25;6.47;;;2.90;;
11187;SDS011;5650;52.700;7.306;2022-07-17T00:46:57;5.15;;;2.42;;
11187;SDS011;5650;52.700;7.306;2022-07-17T00:49:27;9.50;;;2.72;;
11187;SDS011;5650;52.700;7.306;2022-07-17T00:51:59;6.60;;;2.47;;
11187;SDS011;5650;52.700;7.306;2022-07-17T00:54:29;5.78;;;2.58;;
11187;SDS011;5650;52.700;7.306;2022-07-17T00:57:03;5.72;;;2.58;;
11187;SDS011;5650;52.700;7.306;2022-07-17T00:59:34;7.55;;;2.85;;
11187;SDS011;5650;52.700;7.306;2022-07-17T01:02:04;4.15;;;2.20;;
11187;SDS011;5650;52.700;7.306;2022-07-17T01:04:31;6.00;;;2.83;;
11187;SDS011;5650;52.700;7.306;2022-07-17T01:07:02;6.00;;;2.40;;
11187;SDS011;5650;52.700;7.306;2022-07-17T01:09:36;4.55;;;2.83;;
11187;SDS011;5650;52.700;7.306;2022-07-17T01:12:09;4.85;;;2.40;;
11187;SDS011;5650;52.700;7.306;2022-07-17T01:14:36;6.55;;;2.80;;
11187;SDS011;5650;52.700;7.306;2022-07-17T01:17:07;7.43;;;2.75;;
11187;SDS011;5650;52.700;7.306;2022-07-17T01:19:43;6.50;;;2.83;;
11187;SDS011;5650;52.700;7.306;2022-07-17T01:22:12;5.95;;;3.00;;
11187;SDS011;5650;52.700;7.306;2022-07-17T01:24:39;6.93;;;2.63;;
11187;SDS011;5650;52.700;7.306;2022-07-17T01:27:06;3.85;;;2.20;;
11187;SDS011;5650;52.700;7.306;2022-07-17T01:29:35;6.68;;;2.40;;
11187;SDS011;5650;52.700;7.306;2022-07-17T01:32:03;6.32;;;2.55;;
11187;SDS011;5650;52.700;7.306;2022-07-17T01:34:33;3.58;;;2.10;;
11187;SDS011;5650;52.700;7.306;2022-07-17T01:37:00;5.30;;;2.28;;
11187;SDS011;5650;52.700;7.306;2022-07-17T01:39:29;4.90;;;2.28;;
11187;SDS011;5650;52.700;7.306;2022-07-17T01:42:13;5.07;;;2.53;;
11187;SDS011;5650;52.700;7.306;2022-07-17T01:44:43;7.28;;;2.83;;
11187;SDS011;5650;52.700;7.306;2022-07-17T01:47:19;5.93;;;2.20;;
11187;SDS011;5650;52.700;7.306;2022-07-17T01:49:51;5.95;;;2.35;;
11187;SDS011;5650;52.700;7.306;2022-07-17T01:52:19;7.15;;;2.70;;
11187;SDS011;5650;52.700;7.306;2022-07-17T01:55:03;4.45;;;2.38;;
11187;SDS011;5650;52.700;7.306;2022-07-17T01:57:31;4.15;;;2.30;;
11187;SDS011;5650;52.700;7.306;2022-07-17T01:59:58;3.85;;;2.50;;
11187;SDS011;5650;52.700;7.306;2022-07-17T02:02:26;2.97;;;2.05;;
11187;SDS011;5650;52.700;7.306;2022-07-17T02:04:59;7.00;;;2.85;;
11187;SDS011;5650;52.700;7.306;2022-07-17T02:07:35;3.78;;;2.33;;
11187;SDS011;5650;52.700;7.306;2022-07-17T02:10:07;4.70;;;2.20;;
11187;SDS011;5650;52.700;7.306;2022-07-17T02:12:35;6.82;;;2.30;;
11187;SDS011;5650;52.700;7.306;2022-07-17T02:15:03;7.05;;;2.28;;
11187;SDS011;5650;52.700;7.306;2022-07-17T02:17:30;4.95;;;2.10;;
11187;SDS011;5650;52.700;7.306;2022-07-17T02:19:57;4.75;;;2.40;;
11187;SDS011;5650;52.700;7.306;2022-07-17T02:22:28;4.70;;;2.08;;
11187;SDS011;5650;52.700;7.306;2022-07-17T02:24:55;4.40;;;1.90;;
11187;SDS011;5650;52.700;7.306;2022-07-17T02:27:32;5.05;;;1.90;;
11187;SDS011;5650;52.700;7.306;2022-07-17T02:30:02;4.90;;;2.47;;
11187;SDS011;5650;52.700;7.306;2022-07-17T02:32:33;3.30;;;2.15;;
11187;SDS011;5650;52.700;7.306;2022-07-17T02:35:00;5.90;;;2.60;;
11187;SDS011;5650;52.700;7.306;2022-07-17T02:37:27;3.50;;;2.45;;
11187;SDS011;5650;52.700;7.306;2022-07-17T02:39:54;4.22;;;2.20;;
11187;SDS011;5650;52.700;7.306;2022-07-17T02:42:22;7.43;;;2.63;;
11187;SDS011;5650;52.700;7.306;2022-07-17T02:44:55;2.25;;;2.00;;
11187;SDS011;5650;52.700;7.306;2022-07-17T02:47:27;7.25;;;2.53;;
11187;SDS011;5650;52.700;7.306;2022-07-17T02:49:59;4.82;;;2.47;;
11187;SDS011;5650;52.700;7.306;2022-07-17T02:52:27;4.60;;;2.25;;
11187;SDS011;5650;52.700;7.306;2022-07-17T02:55:04;6.72;;;2.58;;
11187;SDS011;5650;52.700;7.306;2022-07-17T02:57:34;4.53;;;2.50;;
11187;SDS011;5650;52.700;7.306;2022-07-17T03:00:07;4.13;;;2.40;;
11187;SDS011;5650;52.700;7.306;2022-07-17T03:02:36;6.05;;;2.60;;
11187;SDS011;5650;52.700;7.306;2022-07-17T03:05:04;7.45;;;2.72;;
11187;SDS011;5650;52.700;7.306;2022-07-17T03:07:34;8.30;;;5.82;;
11187;SDS011;5650;52.700;7.306;2022-07-17T03:10:04;5.80;;;3.90;;
11187;SDS011;5650;52.700;7.306;2022-07-17T03:12:35;5.32;;;2.45;;
11187;SDS011;5650;52.700;7.306;2022-07-17T03:15:02;3.47;;;2.42;;
11187;SDS011;5650;52.700;7.306;2022-07-17T03:17:35;3.42;;;2.35;;
11187;SDS011;5650;52.700;7.306;2022-07-17T03:20:04;4.97;;;2.60;;
11187;SDS011;5650;52.700;7.306;2022-07-17T03:22:31;4.80;;;2.72;;
11187;SDS011;5650;52.700;7.306;2022-07-17T03:24:59;3.90;;;2.55;;
11187;SDS011;5650;52.700;7.306;2022-07-17T03:27:26;2.58;;;2.20;;
11187;SDS011;5650;52.700;7.306;2022-07-17T03:29:56;3.13;;;2.15;;
11187;SDS011;5650;52.700;7.306;2022-07-17T03:32:23;3.05;;;2.50;;
11187;SDS011;5650;52.700;7.306;2022-07-17T03:34:56;2.90;;;2.40;;
11187;SDS011;5650;52.700;7.306;2022-07-17T03:37:24;3.85;;;2.53;;
11187;SDS011;5650;52.700;7.306;2022-07-17T03:39:55;5.40;;;2.83;;
11187;SDS011;5650;52.700;7.306;2022-07-17T03:42:25;5.00;;;2.83;;
11187;SDS011;5650;52.700;7.306;2022-07-17T03:44:52;5.30;;;2.83;;
11187;SDS011;5650;52.700;7.306;2022-07-17T03:47:19;4.22;;;2.70;;
11187;SDS011;5650;52.700;7.306;2022-07-17T03:49:46;5.10;;;2.70;;
11187;SDS011;5650;52.700;7.306;2022-07-17T03:52:24;4.85;;;3.10;;
11187;SDS011;5650;52.700;7.306;2022-07-17T03:54:51;5.65;;;3.08;;
11187;SDS011;5650;52.700;7.306;2022-07-17T03:57:18;4.03;;;2.55;;
11187;SDS011;5650;52.700;7.306;2022-07-17T03:59:54;9.50;;;3.28;;
11187;SDS011;5650;52.700;7.306;2022-07-17T04:02:24;5.10;;;2.90;;
11187;SDS011;5650;52.700;7.306;2022-07-17T04:04:57;7.00;;;2.53;;
11187;SDS011;5650;52.700;7.306;2022-07-17T04:07:24;4.15;;;2.35;;
11187;SDS011;5650;52.700;7.306;2022-07-17T04:09:56;11.65;;;2.85;;
11187;SDS011;5650;52.700;7.306;2022-07-17T04:12:24;4.13;;;2.47;;
11187;SDS011;5650;52.700;7.306;2022-07-17T04:14:58;4.75;;;2.13;;
11187;SDS011;5650;52.700;7.306;2022-07-17T04:17:26;6.15;;;2.10;;
11187;SDS011;5650;52.700;7.306;2022-07-17T04:19:53;3.95;;;2.20;;
11187;SDS011;5650;52.700;7.306;2022-07-17T04:22:21;4.30;;;2.00;;
11187;SDS011;5650;52.700;7.306;2022-07-17T04:24:49;4.05;;;2.22;;
11187;SDS011;5650;52.700;7.306;2022-07-17T04:27:19;4.43;;;2.30;;
11187;SDS011;5650;52.700;7.306;2022-07-17T04:29:56;4.38;;;1.98;;
11187;SDS011;5650;52.700;7.306;2022-07-17T04:32:24;2.90;;;1.63;;
11187;SDS011;5650;52.700;7.306;2022-07-17T04:34:51;5.63;;;3.45;;
11187;SDS011;5650;52.700;7.306;2022-07-17T04:37:31;5.78;;;2.80;;
11187;SDS011;5650;52.700;7.306;2022-07-17T04:39:58;5.28;;;2.30;;
11187;SDS011;5650;52.700;7.306;2022-07-17T04:42:25;4.22;;;2.45;;
11187;SDS011;5650;52.700;7.306;2022-07-17T04:44:52;4.88;;;2.35;;
11187;SDS011;5650;52.700;7.306;2022-07-17T04:47:19;5.78;;;2.53;;
11187;SDS011;5650;52.700;7.306;2022-07-17T04:49:49;5.25;;;2.45;;
11187;SDS011;5650;52.700;7.306;2022-07-17T04:52:19;4.82;;;2.30;;
11187;SDS011;5650;52.700;7.306;2022-07-17T04:54:48;3.85;;;2.42;;
11187;SDS011;5650;52.700;7.306;2022-07-17T04:57:18;5.43;;;2.40;;
11187;SDS011;5650;52.700;7.306;2022-07-17T04:59:48;8.23;;;2.80;;
11187;SDS011;5650;52.700;7.306;2022-07-17T05:02:18;4.43;;;2.65;;
11187;SDS011;5650;52.700;7.306;2022-07-17T05:04:48;4.40;;;2.30;;
11187;SDS011;5650;52.700;7.306;2022-07-17T05:07:22;5.57;;;2.83;;
11187;SDS011;5650;52.700;7.306;2022-07-17T05:09:50;5.65;;;2.72;;
11187;SDS011;5650;52.700;7.306;2022-07-17T05:12:17;6.53;;;3.00;;
11187;SDS011;5650;52.700;7.306;2022-07-17T05:14:44;6.53;;;2.88;;
11187;SDS011;5650;52.700;7.306;2022-07-17T05:17:22;5.00;;;3.17;;
11187;SDS011;5650;52.700;7.306;2022-07-17T05:19:49;6.70;;;3.22;;
11187;SDS011;5650;52.700;7.306;2022-07-17T05:22:20;5.05;;;2.63;;
11187;SDS011;5650;52.700;7.306;2022-07-17T05:24:47;8.07;;;3.15;;
11187;SDS011;5650;52.700;7.306;2022-07-17T05:27:21;7.85;;;3.08;;
11187;SDS011;5650;52.700;7.306;2022-07-17T05:29:49;6.40;;;3.63;;
11187;SDS011;5650;52.700;7.306;2022-07-17T05:32:16;7.55;;;3.80;;
11187;SDS011;5650;52.700;7.306;2022-07-17T05:34:43;8.18;;;3.65;;
11187;SDS011;5650;52.700;7.306;2022-07-17T05:37:10;8.55;;;2.92;;
11187;SDS011;5650;52.700;7.306;2022-07-17T05:39:37;6.72;;;3.28;;
11187;SDS011;5650;52.700;7.306;2022-07-17T05:42:04;7.95;;;3.78;;
11187;SDS011;5650;52.700;7.306;2022-07-17T05:44:33;7.25;;;3.03;;
11187;SDS011;5650;52.700;7.306;2022-07-17T05:47:03;10.27;;;3.40;;
11187;SDS011;5650;52.700;7.306;2022-07-17T05:49:31;4.75;;;2.95;;
11187;SDS011;5650;52.700;7.306;2022-07-17T05:52:01;6.50;;;2.90;;
11187;SDS011;5650;52.700;7.306;2022-07-17T05:54:32;7.75;;;3.28;;
11187;SDS011;5650;52.700;7.306;2022-07-17T05:57:00;9.30;;;2.33;;
11187;SDS011;5650;52.700;7.306;2022-07-17T05:59:27;6.28;;;2.92;;
11187;SDS011;5650;52.700;7.306;2022-07-17T06:04:26;8.18;;;2.70;;
11187;SDS011;5650;52.700;7.306;2022-07-17T06:06:53;8.20;;;3.08;;
11187;SDS011;5650;52.700;7.306;2022-07-17T06:09:23;7.55;;;2.70;;
11187;SDS011;5650;52.700;7.306;2022-07-17T06:11:49;4.85;;;2.40;;
11187;SDS011;5650;52.700;7.306;2022-07-17T06:14:23;7.50;;;2.65;;
11187;SDS011;5650;52.700;7.306;2022-07-17T06:16:51;8.40;;;2.53;;
11187;SDS011;5650;52.700;7.306;2022-07-17T06:19:25;6.30;;;2.58;;
11187;SDS011;5650;52.700;7.306;2022-07-17T06:21:53;8.05;;;2.47;;
11187;SDS011;5650;52.700;7.306;2022-07-17T06:24:20;4.70;;;2.38;;
11187;SDS011;5650;52.700;7.306;2022-07-17T06:26:47;11.35;;;3.10;;
11187;SDS011;5650;52.700;7.306;2022-07-17T06:29:21;7.13;;;2.88;;
11187;SDS011;5650;52.700;7.306;2022-07-17T06:31:56;10.25;;;2.70;;
11187;SDS011;5650;52.700;7.306;2022-07-17T06:34:27;5.57;;;2.67;;
11187;SDS011;5650;52.700;7.306;2022-07-17T06:36:57;7.13;;;2.60;;
11187;SDS011;5650;52.700;7.306;2022-07-17T06:39:25;7.47;;;2.92;;
11187;SDS011;5650;52.700;7.306;2022-07-17T06:41:52;9.93;;;3.33;;
11187;SDS011;5650;52.700;7.306;2022-07-17T06:44:19;10.15;;;2.88;;
11187;SDS011;5650;52.700;7.306;2022-07-17T06:46:49;10.38;;;2.90;;
11187;SDS011;5650;52.700;7.306;2022-07-17T06:49:16;10.18;;;3.00;;
11187;SDS011;5650;52.700;7.306;2022-07-17T06:51:45;6.60;;;2.70;;
11187;SDS011;5650;52.700;7.306;2022-07-17T06:54:13;7.35;;;2.92;;
11187;SDS011;5650;52.700;7.306;2022-07-17T06:56:40;10.68;;;2.92;;
11187;SDS011;5650;52.700;7.306;2022-07-17T06:59:13;10.48;;;3.00;;
11187;SDS011;5650;52.700;7.306;2022-07-17T07:01:44;7.68;;;2.20;;
11187;SDS011;5650;52.700;7.306;2022-07-17T07:04:11;5.65;;;2.10;;
11187;SDS011;5650;52.700;7.306;2022-07-17T07:06:46;6.70;;;2.33;;
11187;SDS011;5650;52.700;7.306;2022-07-17T07:09:13;5.60;;;1.90;;
11187;SDS011;5650;52.700;7.306;2022-07-17T07:11:43;9.48;;;2.58;;
11187;SDS011;5650;52.700;7.306;2022-07-17T07:14:15;7.15;;;2.00;;
11187;SDS011;5650;52.700;7.306;2022-07-17T07:16:42;6.70;;;2.20;;
11187;SDS011;5650;52.700;7.306;2022-07-17T07:19:14;4.53;;;1.70;;
11187;SDS011;5650;52.700;7.306;2022-07-17T07:21:41;6.90;;;2.25;;
11187;SDS011;5650;52.700;7.306;2022-07-17T07:24:14;6.60;;;2.00;;
11187;SDS011;5650;52.700;7.306;2022-07-17T07:26:41;5.25;;;1.75;;
11187;SDS011;5650;52.700;7.306;2022-07-17T07:29:09;8.57;;;2.13;;
11187;SDS011;5650;52.700;7.306;2022-07-17T07:31:39;3.85;;;1.77;;
11187;SDS011;5650;52.700;7.306;2022-07-17T07:34:09;6.95;;;1.75;;
11187;SDS011;5650;52.700;7.306;2022-07-17T07:36:36;5.00;;;1.67;;
11187;SDS011;5650;52.700;7.306;2022-07-17T07:39:03;7.35;;;1.70;;
11187;SDS011;5650;52.700;7.306;2022-07-17T07:41:32;5.32;;;1.70;;
11187;SDS011;5650;52.700;7.306;2022-07-17T07:44:00;8.15;;;1.67;;
11187;SDS011;5650;52.700;7.306;2022-07-17T07:46:27;4.68;;;1.73;;
11187;SDS011;5650;52.700;7.306;2022-07-17T07:48:54;6.22;;;1.73;;
11187;SDS011;5650;52.700;7.306;2022-07-17T07:51:27;9.00;;;2.17;;
11187;SDS011;5650;52.700;7.306;2022-07-17T07:53:56;6.78;;;1.88;;
11187;SDS011;5650;52.700;7.306;2022-07-17T07:56:26;5.47;;;1.60;;
11187;SDS011;5650;52.700;7.306;2022-07-17T07:58:55;6.22;;;1.40;;
11187;SDS011;5650;52.700;7.306;2022-07-17T08:01:25;7.28;;;1.70;;
11187;SDS011;5650;52.700;7.306;2022-07-17T08:03:53;6.40;;;2.10;;
11187;SDS011;5650;52.700;7.306;2022-07-17T08:06:32;2.70;;;1.38;;
11187;SDS011;5650;52.700;7.306;2022-07-17T08:09:03;4.57;;;1.52;;
11187;SDS011;5650;52.700;7.306;2022-07-17T08:11:33;6.03;;;1.60;;
11187;SDS011;5650;52.700;7.306;2022-07-17T08:14:07;4.43;;;1.27;;
11187;SDS011;5650;52.700;7.306;2022-07-17T08:16:36;4.80;;;1.42;;
11187;SDS011;5650;52.700;7.306;2022-07-17T08:19:07;5.63;;;1.45;;
11187;SDS011;5650;52.700;7.306;2022-07-17T08:21:37;6.72;;;1.52;;
11187;SDS011;5650;52.700;7.306;2022-07-17T08:24:04;7.00;;;1.90;;
11187;SDS011;5650;52.700;7.306;2022-07-17T08:26:34;3.75;;;1.48;;
11187;SDS011;5650;52.700;7.306;2022-07-17T08:29:01;5.25;;;1.77;;
11187;SDS011;5650;52.700;7.306;2022-07-17T08:31:30;6.22;;;1.63;;
11187;SDS011;5650;52.700;7.306;2022-07-17T08:33:58;5.03;;;1.40;;
11187;SDS011;5650;52.700;7.306;2022-07-17T08:39:17;3.78;;;1.30;;
11187;SDS011;5650;52.700;7.306;2022-07-17T08:41:47;4.30;;;1.27;;
11187;SDS011;5650;52.700;7.306;2022-07-17T08:44:18;3.40;;;1.38;;
11187;SDS011;5650;52.700;7.306;2022-07-17T08:46:48;5.75;;;1.35;;
11187;SDS011;5650;52.700;7.306;2022-07-17T08:49:16;4.35;;;1.45;;
11187;SDS011;5650;52.700;7.306;2022-07-17T08:51:47;5.05;;;1.40;;
11187;SDS011;5650;52.700;7.306;2022-07-17T08:54:14;4.43;;;1.40;;
11187;SDS011;5650;52.700;7.306;2022-07-17T08:56:44;4.97;;;1.40;;
11187;SDS011;5650;52.700;7.306;2022-07-17T08:59:11;5.90;;;1.40;;
11187;SDS011;5650;52.700;7.306;2022-07-17T09:01:39;3.90;;;1.15;;
11187;SDS011;5650;52.700;7.306;2022-07-17T09:04:11;5.50;;;1.27;;
11187;SDS011;5650;52.700;7.306;2022-07-17T09:06:38;5.45;;;1.30;;
11187;SDS011;5650;52.700;7.306;2022-07-17T09:09:06;3.97;;;1.20;;
11187;SDS011;5650;52.700;7.306;2022-07-17T09:11:47;8.80;;;1.55;;
11187;SDS011;5650;52.700;7.306;2022-07-17T09:14:15;6.38;;;1.17;;
11187;SDS011;5650;52.700;7.306;2022-07-17T09:16:50;5.43;;;1.48;;
11187;SDS011;5650;52.700;7.306;2022-07-17T09:19:30;4.47;;;1.10;;
11187;SDS011;5650;52.700;7.306;2022-07-17T09:22:04;5.38;;;1.30;;
11187;SDS011;5650;52.700;7.306;2022-07-17T09:24:40;6.88;;;1.42;;
11187;SDS011;5650;52.700;7.306;2022-07-17T09:27:09;6.20;;;1.42;;
11187;SDS011;5650;52.700;7.306;2022-07-17T09:29:51;5.75;;;1.48;;
11187;SDS011;5650;52.700;7.306;2022-07-17T09:32:27;4.60;;;1.40;;
11187;SDS011;5650;52.700;7.306;2022-07-17T09:35:00;6.72;;;1.23;;
11187;SDS011;5650;52.700;7.306;2022-07-17T09:37:31;8.52;;;1.50;;
11187;SDS011;5650;52.700;7.306;2022-07-17T09:39:59;3.70;;;1.27;;
11187;SDS011;5650;52.700;7.306;2022-07-17T09:42:30;5.53;;;1.58;;
11187;SDS011;5650;52.700;7.306;2022-07-17T09:44:59;5.35;;;1.48;;
11187;SDS011;5650;52.700;7.306;2022-07-17T09:47:28;4.68;;;1.23;;
11187;SDS011;5650;52.700;7.306;2022-07-17T09:49:57;4.68;;;1.30;;
11187;SDS011;5650;52.700;7.306;2022-07-17T09:52:27;3.55;;;1.20;;
11187;SDS011;5650;52.700;7.306;2022-07-17T09:55:02;4.30;;;1.50;;
11187;SDS011;5650;52.700;7.306;2022-07-17T09:57:32;3.92;;;1.20;;
11187;SDS011;5650;52.700;7.306;2022-07-17T10:00:01;4.50;;;1.40;;
11187;SDS011;5650;52.700;7.306;2022-07-17T10:02:29;6.05;;;1.55;;
11187;SDS011;5650;52.700;7.306;2022-07-17T10:04:57;5.35;;;1.25;;
11187;SDS011;5650;52.700;7.306;2022-07-17T10:07:26;3.65;;;1.17;;
11187;SDS011;5650;52.700;7.306;2022-07-17T10:09:54;4.85;;;1.58;;
11187;SDS011;5650;52.700;7.306;2022-07-17T10:12:26;4.65;;;1.20;;
11187;SDS011;5650;52.700;7.306;2022-07-17T10:14:54;3.45;;;1.17;;
11187;SDS011;5650;52.700;7.306;2022-07-17T10:17:21;6.15;;;1.88;;
11187;SDS011;5650;52.700;7.306;2022-07-17T10:19:49;4.55;;;1.55;;
11187;SDS011;5650;52.700;7.306;2022-07-17T10:22:23;3.50;;;1.33;;
11187;SDS011;5650;52.700;7.306;2022-07-17T10:24:54;6.63;;;1.60;;
11187;SDS011;5650;52.700;7.306;2022-07-17T10:27:23;5.05;;;1.55;;
11187;SDS011;5650;52.700;7.306;2022-07-17T10:30:04;4.97;;;1.27;;
11187;SDS011;5650;52.700;7.306;2022-07-17T10:32:33;3.30;;;1.23;;
11187;SDS011;5650;52.700;7.306;2022-07-17T10:35:05;3.83;;;1.20;;
11187;SDS011;5650;52.700;7.306;2022-07-17T10:37:39;3.95;;;1.48;;
11187;SDS011;5650;52.700;7.306;2022-07-17T10:40:11;4.55;;;1.30;;
11187;SDS011;5650;52.700;7.306;2022-07-17T10:42:52;5.18;;;1.25;;
11187;SDS011;5650;52.700;7.306;2022-07-17T10:45:24;4.35;;;1.52;;
11187;SDS011;5650;52.700;7.306;2022-07-17T10:48:04;4.72;;;1.27;;
11187;SDS011;5650;52.700;7.306;2022-07-17T10:50:33;7.13;;;1.40;;
11187;SDS011;5650;52.700;7.306;2022-07-17T10:55:47;4.00;;;1.00;;
11187;SDS011;5650;52.700;7.306;2022-07-17T10:58:25;7.97;;;4.20;;
11187;SDS011;5650;52.700;7.306;2022-07-17T11:01:03;7.10;;;1.55;;
11187;SDS011;5650;52.700;7.306;2022-07-17T11:03:35;4.95;;;2.45;;
11187;SDS011;5650;52.700;7.306;2022-07-17T11:06:16;8.25;;;1.58;;
11187;SDS011;5650;52.700;7.306;2022-07-17T11:08:49;6.35;;;1.45;;
11187;SDS011;5650;52.700;7.306;2022-07-17T11:11:19;5.93;;;1.48;;
11187;SDS011;5650;52.700;7.306;2022-07-17T11:13:47;5.47;;;1.55;;
11187;SDS011;5650;52.700;7.306;2022-07-17T11:16:23;4.72;;;1.30;;
11187;SDS011;5650;52.700;7.306;2022-07-17T11:18:53;8.38;;;1.52;;
11187;SDS011;5650;52.700;7.306;2022-07-17T11:21:26;3.67;;;1.33;;
11187;SDS011;5650;52.700;7.306;2022-07-17T11:23:55;3.90;;;1.48;;
11187;SDS011;5650;52.700;7.306;2022-07-17T11:26:26;4.47;;;1.40;;
11187;SDS011;5650;52.700;7.306;2022-07-17T11:28:59;4.85;;;1.27;;
11187;SDS011;5650;52.700;7.306;2022-07-17T11:31:27;6.45;;;1.38;;
11187;SDS011;5650;52.700;7.306;2022-07-17T11:34:02;4.88;;;1.15;;
11187;SDS011;5650;52.700;7.306;2022-07-17T11:36:38;5.53;;;1.42;;
11187;SDS011;5650;52.700;7.306;2022-07-17T11:39:08;4.13;;;1.50;;
11187;SDS011;5650;52.700;7.306;2022-07-17T11:41:41;4.22;;;1.33;;
11187;SDS011;5650;52.700;7.306;2022-07-17T11:44:10;4.43;;;1.45;;
11187;SDS011;5650;52.700;7.306;2022-07-17T11:46:40;5.63;;;1.15;;
11187;SDS011;5650;52.700;7.306;2022-07-17T11:49:10;8.13;;;1.40;;
11187;SDS011;5650;52.700;7.306;2022-07-17T11:51:49;4.25;;;1.30;;
11187;SDS011;5650;52.700;7.306;2022-07-17T11:54:27;4.85;;;1.27;;
11187;SDS011;5650;52.700;7.306;2022-07-17T11:56:58;4.35;;;1.30;;
11187;SDS011;5650;52.700;7.306;2022-07-17T11:59:30;4.18;;;1.45;;
11187;SDS011;5650;52.700;7.306;2022-07-17T12:02:06;2.15;;;1.05;;
11187;SDS011;5650;52.700;7.306;2022-07-17T12:04:47;2.85;;;1.17;;
11187;SDS011;5650;52.700;7.306;2022-07-17T12:07:15;3.92;;;1.20;;
11187;SDS011;5650;52.700;7.306;2022-07-17T12:09:51;3.70;;;1.30;;
11187;SDS011;5650;52.700;7.306;2022-07-17T12:12:23;4.15;;;1.40;;
11187;SDS011;5650;52.700;7.306;2022-07-17T12:14:56;2.72;;;1.00;;
11187;SDS011;5650;52.700;7.306;2022-07-17T12:17:43;1.38;;;0.82;;
11187;SDS011;5650;52.700;7.306;2022-07-17T12:20:13;3.60;;;1.45;;
11187;SDS011;5650;52.700;7.306;2022-07-17T12:22:44;8.27;;;1.48;;
11187;SDS011;5650;52.700;7.306;2022-07-17T12:25:26;4.68;;;1.20;;
11187;SDS011;5650;52.700;7.306;2022-07-17T12:27:57;3.67;;;1.27;;
11187;SDS011;5650;52.700;7.306;2022-07-17T12:30:24;5.10;;;1.63;;
11187;SDS011;5650;52.700;7.306;2022-07-17T12:32:54;3.05;;;1.30;;
11187;SDS011;5650;52.700;7.306;2022-07-17T12:35:24;8.50;;;1.88;;
11187;SDS011;5650;52.700;7.306;2022-07-17T12:38:05;6.00;;;1.48;;
11187;SDS011;5650;52.700;7.306;2022-07-17T12:40:37;3.28;;;1.50;;
11187;SDS011;5650;52.700;7.306;2022-07-17T12:43:13;5.72;;;1.50;;
11187;SDS011;5650;52.700;7.306;2022-07-17T12:45:40;4.82;;;1.40;;
11187;SDS011;5650;52.700;7.306;2022-07-17T12:48:08;3.35;;;1.30;;
11187;SDS011;5650;52.700;7.306;2022-07-17T12:50:35;5.63;;;1.67;;
11187;SDS011;5650;52.700;7.306;2022-07-17T12:53:02;4.07;;;1.40;;
11187;SDS011;5650;52.700;7.306;2022-07-17T12:55:32;3.42;;;1.63;;
11187;SDS011;5650;52.700;7.306;2022-07-17T12:58:04;2.35;;;1.40;;
11187;SDS011;5650;52.700;7.306;2022-07-17T13:00:31;3.00;;;1.30;;
11187;SDS011;5650;52.700;7.306;2022-07-17T13:03:02;6.03;;;1.88;;
11187;SDS011;5650;52.700;7.306;2022-07-17T13:05:30;4.50;;;1.63;;
11187;SDS011;5650;52.700;7.306;2022-07-17T13:07:57;5.00;;;1.80;;
11187;SDS011;5650;52.700;7.306;2022-07-17T13:10:24;3.88;;;1.45;;
11187;SDS011;5650;52.700;7.306;2022-07-17T13:12:51;4.07;;;1.98;;
11187;SDS011;5650;52.700;7.306;2022-07-17T13:15:20;4.25;;;1.67;;
11187;SDS011;5650;52.700;7.306;2022-07-17T13:17:47;3.70;;;1.80;;
11187;SDS011;5650;52.700;7.306;2022-07-17T13:20:14;4.75;;;1.77;;
11187;SDS011;5650;52.700;7.306;2022-07-17T13:22:44;4.15;;;1.67;;
11187;SDS011;5650;52.700;7.306;2022-07-17T13:25:11;3.92;;;1.73;;
11187;SDS011;5650;52.700;7.306;2022-07-17T13:27:38;4.13;;;1.85;;
11187;SDS011;5650;52.700;7.306;2022-07-17T13:30:06;5.50;;;2.10;;
11187;SDS011;5650;52.700;7.306;2022-07-17T13:32:35;4.78;;;1.70;;
11187;SDS011;5650;52.700;7.306;2022-07-17T13:35:02;3.58;;;1.60;;
11187;SDS011;5650;52.700;7.306;2022-07-17T13:37:34;7.53;;;2.03;;
11187;SDS011;5650;52.700;7.306;2022-07-17T13:40:02;3.80;;;1.80;;
11187;SDS011;5650;52.700;7.306;2022-07-17T13:42:45;4.30;;;1.85;;
11187;SDS011;5650;52.700;7.306;2022-07-17T13:45:16;3.80;;;1.65;;
11187;SDS011;5650;52.700;7.306;2022-07-17T13:47:52;6.55;;;1.52;;
11187;SDS011;5650;52.700;7.306;2022-07-17T13:50:23;8.82;;;1.92;;
11187;SDS011;5650;52.700;7.306;2022-07-17T13:52:51;6.80;;;1.92;;
11187;SDS011;5650;52.700;7.306;2022-07-17T13:55:28;4.35;;;1.77;;
11187;SDS011;5650;52.700;7.306;2022-07-17T13:58:00;3.65;;;1.50;;
11187;SDS011;5650;52.700;7.306;2022-07-17T14:00:28;3.78;;;1.60;;
11187;SDS011;5650;52.700;7.306;2022-07-17T14:02:57;6.07;;;1.60;;
11187;SDS011;5650;52.700;7.306;2022-07-17T14:05:34;4.93;;;1.67;;
11187;SDS011;5650;52.700;7.306;2022-07-17T14:08:02;4.63;;;1.65;;
11187;SDS011;5650;52.700;7.306;2022-07-17T14:10:29;5.70;;;1.70;;
11187;SDS011;5650;52.700;7.306;2022-07-17T14:13:01;4.22;;;1.95;;
11187;SDS011;5650;52.700;7.306;2022-07-17T14:15:32;4.50;;;1.70;;
11187;SDS011;5650;52.700;7.306;2022-07-17T14:18:01;3.63;;;1.67;;
11187;SDS011;5650;52.700;7.306;2022-07-17T14:20:29;7.68;;;2.13;;
11187;SDS011;5650;52.700;7.306;2022-07-17T14:22:56;4.93;;;2.13;;
11187;SDS011;5650;52.700;7.306;2022-07-17T14:25:23;2.83;;;1.83;;
11187;SDS011;5650;52.700;7.306;2022-07-17T14:27:50;4.05;;;2.10;;
11187;SDS011;5650;52.700;7.306;2022-07-17T14:30:17;6.13;;;2.35;;
11187;SDS011;5650;52.700;7.306;2022-07-17T14:32:44;4.00;;;2.50;;
11187;SDS011;5650;52.700;7.306;2022-07-17T14:35:13;9.73;;;2.53;;
11187;SDS011;5650;52.700;7.306;2022-07-17T14:37:40;5.65;;;2.65;;
11187;SDS011;5650;52.700;7.306;2022-07-17T14:40:08;4.57;;;2.15;;
11187;SDS011;5650;52.700;7.306;2022-07-17T14:42:36;4.55;;;2.20;;
11187;SDS011;5650;52.700;7.306;2022-07-17T14:45:03;4.88;;;2.42;;
11187;SDS011;5650;52.700;7.306;2022-07-17T14:47:31;4.10;;;2.42;;
11187;SDS011;5650;52.700;7.306;2022-07-17T14:50:01;4.88;;;2.78;;
11187;SDS011;5650;52.700;7.306;2022-07-17T14:52:30;4.68;;;2.70;;
11187;SDS011;5650;52.700;7.306;2022-07-17T14:54:58;5.38;;;3.03;;
11187;SDS011;5650;52.700;7.306;2022-07-17T14:57:25;4.22;;;2.97;;
11187;SDS011;5650;52.700;7.306;2022-07-17T14:59:52;4.85;;;3.17;;
11187;SDS011;5650;52.700;7.306;2022-07-17T15:02:19;4.57;;;3.17;;
11187;SDS011;5650;52.700;7.306;2022-07-17T15:04:46;5.30;;;3.72;;
11187;SDS011;5650;52.700;7.306;2022-07-17T15:07:13;7.13;;;4.53;;
11187;SDS011;5650;52.700;7.306;2022-07-17T15:09:42;5.80;;;3.90;;
11187;SDS011;5650;52.700;7.306;2022-07-17T15:12:09;6.55;;;3.50;;
11187;SDS011;5650;52.700;7.306;2022-07-17T15:14:36;4.85;;;3.08;;
11187;SDS011;5650;52.700;7.306;2022-07-17T15:17:03;7.80;;;3.38;;
11187;SDS011;5650;52.700;7.306;2022-07-17T15:19:30;5.35;;;3.00;;
11187;SDS011;5650;52.700;7.306;2022-07-17T15:21:57;10.38;;;4.32;;
11187;SDS011;5650;52.700;7.306;2022-07-17T15:24:24;6.07;;;3.30;;
11187;SDS011;5650;52.700;7.306;2022-07-17T15:26:53;6.13;;;3.10;;